Terminal Aerodrome Forecast
Issued by NWS Knoxville/Tri Cities, TN

Home | Current Version | Previous Version | Text Only | Print | Product List | Glossary On
Versions: 1 2 3 4 5 6 7 8 9 10 11 12 13 14 15 16 17 18 19 20 21 22 23 24 25 26 27 28 29 30
000
FTUS44 KMRX 011720
TAFCHA
TAF
KCHA 011720Z 0118/0218 19008KT 5SM BR OVC015
     FM012100 19006KT 3SM -RA BR OVC008
     FM020000 20002KT 2SM -DZ BR OVC004
     FM021600 36007KT 6SM BR OVC008=

USA.gov is the U.S. government's official web portal to all federal, state and local government web resources and services.